sensor_id;sensor_type;location;lat;lon;timestamp;pressure;altitude;pressure_sealevel;temperature;humidity
65553;BME280;52465;51.560;14.368;2023-01-20T00:01:32;99561.00;;;6.58;66.73
65553;BME280;52465;51.560;14.368;2023-01-20T00:03:59;99577.66;;;6.66;66.07
65553;BME280;52465;51.560;14.368;2023-01-20T00:06:35;99594.16;;;6.74;66.11
65553;BME280;52465;51.560;14.368;2023-01-20T00:09:02;99589.25;;;6.71;67.09
65553;BME280;52465;51.560;14.368;2023-01-20T00:11:28;99585.28;;;6.67;66.57
65553;BME280;52465;51.560;14.368;2023-01-20T00:14:00;99594.28;;;6.73;66.49
65553;BME280;52465;51.560;14.368;2023-01-20T00:16:27;99578.78;;;6.63;66.22
65553;BME280;52465;51.560;14.368;2023-01-20T00:18:53;99609.06;;;6.72;67.31
65553;BME280;52465;51.560;14.368;2023-01-20T00:21:19;99593.63;;;6.71;66.49
65553;BME280;52465;51.560;14.368;2023-01-20T00:23:48;99602.09;;;6.73;66.23
65553;BME280;52465;51.560;14.368;2023-01-20T00:26:17;99606.47;;;6.72;66.35
65553;BME280;52465;51.560;14.368;2023-01-20T00:28:43;99603.38;;;6.69;67.22
65553;BME280;52465;51.560;14.368;2023-01-20T00:33:38;99606.25;;;6.66;66.50
65553;BME280;52465;51.560;14.368;2023-01-20T00:36:04;99603.50;;;6.67;66.60
65553;BME280;52465;51.560;14.368;2023-01-20T00:38:31;99602.03;;;6.65;66.55
65553;BME280;52465;51.560;14.368;2023-01-20T00:40:59;99623.88;;;6.72;66.69
65553;BME280;52465;51.560;14.368;2023-01-20T00:43:27;99594.44;;;6.53;66.67
65553;BME280;52465;51.560;14.368;2023-01-20T00:45:52;99608.69;;;6.67;66.91
65553;BME280;52465;51.560;14.368;2023-01-20T00:48:18;99612.59;;;6.63;66.43
65553;BME280;52465;51.560;14.368;2023-01-20T00:50:43;99618.06;;;6.60;66.89
65553;BME280;52465;51.560;14.368;2023-01-20T00:53:09;99593.25;;;6.48;67.21
65553;BME280;52465;51.560;14.368;2023-01-20T00:55:35;99620.38;;;6.63;67.06
65553;BME280;52465;51.560;14.368;2023-01-20T00:58:03;99607.59;;;6.52;66.53
65553;BME280;52465;51.560;14.368;2023-01-20T01:00:29;99629.13;;;6.62;66.81
65553;BME280;52465;51.560;14.368;2023-01-20T01:02:54;99608.03;;;6.47;66.67
65553;BME280;52465;51.560;14.368;2023-01-20T01:05:23;99623.84;;;6.54;66.66
65553;BME280;52465;51.560;14.368;2023-01-20T01:07:48;99591.94;;;6.34;66.55
65553;BME280;52465;51.560;14.368;2023-01-20T01:10:14;99644.72;;;6.62;66.33
65553;BME280;52465;51.560;14.368;2023-01-20T01:12:45;99654.03;;;6.65;67.10
65553;BME280;52465;51.560;14.368;2023-01-20T01:15:10;99661.53;;;6.68;66.89
65553;BME280;52465;51.560;14.368;2023-01-20T01:17:36;99647.50;;;6.60;66.35
65553;BME280;52465;51.560;14.368;2023-01-20T01:20:02;99641.66;;;6.49;66.94
65553;BME280;52465;51.560;14.368;2023-01-20T01:22:30;99676.47;;;6.66;67.03
65553;BME280;52465;51.560;14.368;2023-01-20T01:24:56;99672.25;;;6.65;66.54
65553;BME280;52465;51.560;14.368;2023-01-20T01:27:21;99675.50;;;6.67;67.01
65553;BME280;52465;51.560;14.368;2023-01-20T01:29:47;99666.66;;;6.59;66.65
65553;BME280;52465;51.560;14.368;2023-01-20T01:32:12;99673.00;;;6.57;66.95
65553;BME280;52465;51.560;14.368;2023-01-20T01:34:37;99673.22;;;6.63;66.43
65553;BME280;52465;51.560;14.368;2023-01-20T01:37:03;99688.66;;;6.65;66.45
65553;BME280;52465;51.560;14.368;2023-01-20T01:39:28;99690.59;;;6.63;67.23
65553;BME280;52465;51.560;14.368;2023-01-20T01:41:54;99682.53;;;6.56;67.09
65553;BME280;52465;51.560;14.368;2023-01-20T01:44:19;99667.69;;;6.49;66.54
65553;BME280;52465;51.560;14.368;2023-01-20T01:46:47;99687.19;;;6.62;67.14
65553;BME280;52465;51.560;14.368;2023-01-20T01:49:25;99696.63;;;6.63;66.76
65553;BME280;52465;51.560;14.368;2023-01-20T01:52:01;99691.53;;;6.62;66.54
65553;BME280;52465;51.560;14.368;2023-01-20T01:54:32;99705.25;;;6.64;66.71
65553;BME280;52465;51.560;14.368;2023-01-20T01:57:03;99710.44;;;6.64;66.40
65553;BME280;52465;51.560;14.368;2023-01-20T01:59:29;99704.19;;;6.57;66.76
65553;BME280;52465;51.560;14.368;2023-01-20T02:01:57;99686.19;;;6.46;66.72
65553;BME280;52465;51.560;14.368;2023-01-20T02:04:25;99709.91;;;6.60;67.24
65553;BME280;52465;51.560;14.368;2023-01-20T02:06:54;99699.41;;;6.52;66.84
65553;BME280;52465;51.560;14.368;2023-01-20T02:09:21;99694.66;;;6.48;66.62
65553;BME280;52465;51.560;14.368;2023-01-20T02:11:50;99723.88;;;6.59;66.68
65553;BME280;52465;51.560;14.368;2023-01-20T02:14:19;99719.50;;;6.60;66.69
65553;BME280;52465;51.560;14.368;2023-01-20T02:17:01;99727.84;;;6.63;67.15
65553;BME280;52465;51.560;14.368;2023-01-20T02:25:04;99735.75;;;6.62;66.80
65553;BME280;52465;51.560;14.368;2023-01-20T02:32:55;99733.16;;;6.62;66.94
65553;BME280;52465;51.560;14.368;2023-01-20T02:35:46;99741.25;;;6.59;66.87
65553;BME280;52465;51.560;14.368;2023-01-20T02:38:41;99735.09;;;6.60;66.93
65553;BME280;52465;51.560;14.368;2023-01-20T02:41:22;99742.75;;;6.61;67.06
65553;BME280;52465;51.560;14.368;2023-01-20T02:43:58;99746.31;;;6.60;66.63
65553;BME280;52465;51.560;14.368;2023-01-20T02:46:31;99735.81;;;6.52;66.80
65553;BME280;52465;51.560;14.368;2023-01-20T02:51:37;99713.31;;;6.33;66.63
65553;BME280;52465;51.560;14.368;2023-01-20T02:54:31;99740.22;;;6.52;67.10
65553;BME280;52465;51.560;14.368;2023-01-20T02:56:59;99752.47;;;6.59;67.10
65553;BME280;52465;51.560;14.368;2023-01-20T02:59:35;99752.75;;;6.56;66.96
65553;BME280;52465;51.560;14.368;2023-01-20T03:02:19;99743.91;;;6.49;66.93
65553;BME280;52465;51.560;14.368;2023-01-20T03:04:50;99763.03;;;6.58;66.90
65553;BME280;52465;51.560;14.368;2023-01-20T03:07:20;99751.44;;;6.52;66.90
65553;BME280;52465;51.560;14.368;2023-01-20T03:09:50;99752.25;;;6.53;66.88
65553;BME280;52465;51.560;14.368;2023-01-20T03:12:30;99764.53;;;6.60;67.04
65553;BME280;52465;51.560;14.368;2023-01-20T03:18:23;99740.91;;;6.44;66.63
65553;BME280;52465;51.560;14.368;2023-01-20T03:20:50;99758.41;;;6.52;66.97
65553;BME280;52465;51.560;14.368;2023-01-20T03:23:16;99741.47;;;6.38;66.51
65553;BME280;52465;51.560;14.368;2023-01-20T03:25:43;99752.50;;;6.50;66.54
65553;BME280;52465;51.560;14.368;2023-01-20T03:28:10;99753.78;;;6.46;66.62
65553;BME280;52465;51.560;14.368;2023-01-20T03:30:35;99772.31;;;6.60;66.75
65553;BME280;52465;51.560;14.368;2023-01-20T03:33:03;99777.53;;;6.60;67.16
65553;BME280;52465;51.560;14.368;2023-01-20T03:35:30;99735.59;;;6.36;66.46
65553;BME280;52465;51.560;14.368;2023-01-20T03:37:56;99770.97;;;6.56;67.08
65553;BME280;52465;51.560;14.368;2023-01-20T03:40:24;99766.47;;;6.49;66.48
65553;BME280;52465;51.560;14.368;2023-01-20T03:43:11;99788.75;;;6.61;67.09
65553;BME280;52465;51.560;14.368;2023-01-20T03:46:09;99749.44;;;6.36;66.59
65553;BME280;52465;51.560;14.368;2023-01-20T03:48:50;99780.44;;;6.57;67.11
65553;BME280;52465;51.560;14.368;2023-01-20T03:51:28;99785.47;;;6.59;67.14
65553;BME280;52465;51.560;14.368;2023-01-20T03:54:24;99794.91;;;6.60;66.47
65553;BME280;52465;51.560;14.368;2023-01-20T03:57:02;99776.88;;;6.49;66.85
65553;BME280;52465;51.560;14.368;2023-01-20T03:59:33;99784.69;;;6.49;66.61
65553;BME280;52465;51.560;14.368;2023-01-20T04:02:05;99801.66;;;6.53;67.47
65553;BME280;52465;51.560;14.368;2023-01-20T04:04:33;99797.69;;;6.49;66.56
65553;BME280;52465;51.560;14.368;2023-01-20T04:07:04;99798.34;;;6.51;67.33
65553;BME280;52465;51.560;14.368;2023-01-20T04:09:34;99814.25;;;6.57;66.92
65553;BME280;52465;51.560;14.368;2023-01-20T04:12:09;99812.88;;;6.53;66.69
65553;BME280;52465;51.560;14.368;2023-01-20T04:14:35;99821.34;;;6.55;67.06
65553;BME280;52465;51.560;14.368;2023-01-20T04:17:02;99790.22;;;6.36;66.99
65553;BME280;52465;51.560;14.368;2023-01-20T04:19:28;99835.84;;;6.58;67.17
65553;BME280;52465;51.560;14.368;2023-01-20T04:21:59;99823.66;;;6.58;66.77
65553;BME280;52465;51.560;14.368;2023-01-20T04:24:33;99830.50;;;6.59;67.14
65553;BME280;52465;51.560;14.368;2023-01-20T04:27:01;99824.09;;;6.54;66.79
65553;BME280;52465;51.560;14.368;2023-01-20T04:29:27;99810.59;;;6.41;66.58
65553;BME280;52465;51.560;14.368;2023-01-20T04:31:58;99838.56;;;6.56;66.66
65553;BME280;52465;51.560;14.368;2023-01-20T04:34:24;99839.44;;;6.57;67.16
65553;BME280;52465;51.560;14.368;2023-01-20T04:36:50;99804.44;;;6.32;67.19
65553;BME280;52465;51.560;14.368;2023-01-20T04:39:15;99838.56;;;6.56;67.01
65553;BME280;52465;51.560;14.368;2023-01-20T04:41:41;99829.03;;;6.47;66.86
65553;BME280;52465;51.560;14.368;2023-01-20T04:44:06;99849.81;;;6.57;66.73
65553;BME280;52465;51.560;14.368;2023-01-20T04:46:32;99825.88;;;6.44;67.58
65553;BME280;52465;51.560;14.368;2023-01-20T04:48:57;99808.25;;;6.38;66.71
65553;BME280;52465;51.560;14.368;2023-01-20T04:51:22;99803.06;;;6.28;66.99
65553;BME280;52465;51.560;14.368;2023-01-20T04:53:48;99835.72;;;6.50;66.57
65553;BME280;52465;51.560;14.368;2023-01-20T04:56:16;99834.50;;;6.44;66.91
65553;BME280;52465;51.560;14.368;2023-01-20T04:58:42;99853.38;;;6.56;67.10
65553;BME280;52465;51.560;14.368;2023-01-20T05:01:07;99810.88;;;6.28;67.03
65553;BME280;52465;51.560;14.368;2023-01-20T05:03:33;99842.72;;;6.49;66.58
65553;BME280;52465;51.560;14.368;2023-01-20T05:06:00;99850.25;;;6.52;67.12
65553;BME280;52465;51.560;14.368;2023-01-20T05:08:25;99853.94;;;6.50;67.13
65553;BME280;52465;51.560;14.368;2023-01-20T05:10:52;99834.25;;;6.38;67.09
65553;BME280;52465;51.560;14.368;2023-01-20T05:13:17;99838.63;;;6.37;66.94
65553;BME280;52465;51.560;14.368;2023-01-20T05:15:43;99871.56;;;6.56;66.88
65553;BME280;52465;51.560;14.368;2023-01-20T05:18:08;99870.22;;;6.52;67.06
65553;BME280;52465;51.560;14.368;2023-01-20T05:20:36;99878.69;;;6.54;67.33
65553;BME280;52465;51.560;14.368;2023-01-20T05:23:02;99883.09;;;6.53;67.46
65553;BME280;52465;51.560;14.368;2023-01-20T05:25:28;99873.50;;;6.44;66.93
65553;BME280;52465;51.560;14.368;2023-01-20T05:27:54;99867.91;;;6.39;67.03
65553;BME280;52465;51.560;14.368;2023-01-20T05:30:19;99903.59;;;6.56;67.05
65553;BME280;52465;51.560;14.368;2023-01-20T05:32:48;99900.63;;;6.51;67.30
65553;BME280;52465;51.560;14.368;2023-01-20T05:35:14;99886.50;;;6.44;66.90
65553;BME280;52465;51.560;14.368;2023-01-20T05:37:39;99901.28;;;6.53;67.28
65553;BME280;52465;51.560;14.368;2023-01-20T05:40:05;99902.09;;;6.54;66.83
65553;BME280;52465;51.560;14.368;2023-01-20T05:42:34;99925.25;;;6.57;67.16
65553;BME280;52465;51.560;14.368;2023-01-20T05:45:00;99923.47;;;6.57;66.89
65553;BME280;52465;51.560;14.368;2023-01-20T05:47:28;99928.94;;;6.54;66.98
65553;BME280;52465;51.560;14.368;2023-01-20T05:49:53;99928.13;;;6.54;67.64
65553;BME280;52465;51.560;14.368;2023-01-20T05:52:19;99924.13;;;6.50;67.21
65553;BME280;52465;51.560;14.368;2023-01-20T05:54:44;99930.03;;;6.52;67.10
65553;BME280;52465;51.560;14.368;2023-01-20T05:57:09;99945.34;;;6.55;67.51
65553;BME280;52465;51.560;14.368;2023-01-20T05:59:38;99919.34;;;6.45;67.28
65553;BME280;52465;51.560;14.368;2023-01-20T06:02:06;99927.16;;;6.45;67.02
65553;BME280;52465;51.560;14.368;2023-01-20T06:04:32;99924.69;;;6.44;67.03
65553;BME280;52465;51.560;14.368;2023-01-20T06:06:57;99920.06;;;6.38;67.28
65553;BME280;52465;51.560;14.368;2023-01-20T06:09:23;99937.69;;;6.53;67.27
65553;BME280;52465;51.560;14.368;2023-01-20T06:11:49;99944.69;;;6.53;66.97
65553;BME280;52465;51.560;14.368;2023-01-20T06:14:17;99951.25;;;6.57;67.10
65553;BME280;52465;51.560;14.368;2023-01-20T06:16:43;99921.69;;;6.39;67.28
65553;BME280;52465;51.560;14.368;2023-01-20T06:19:08;99953.84;;;6.57;67.11
65553;BME280;52465;51.560;14.368;2023-01-20T06:21:34;99924.16;;;6.40;67.43
65553;BME280;52465;51.560;14.368;2023-01-20T06:23:59;99956.03;;;6.52;66.79
65553;BME280;52465;51.560;14.368;2023-01-20T06:26:25;99936.47;;;6.38;67.10
65553;BME280;52465;51.560;14.368;2023-01-20T06:28:50;99951.25;;;6.47;66.85
65553;BME280;52465;51.560;14.368;2023-01-20T06:31:16;99938.00;;;6.41;67.44
65553;BME280;52465;51.560;14.368;2023-01-20T06:33:41;99978.19;;;6.56;66.82
65553;BME280;52465;51.560;14.368;2023-01-20T06:36:10;99930.59;;;6.26;66.93
65553;BME280;52465;51.560;14.368;2023-01-20T06:38:38;99965.06;;;6.48;66.77
65553;BME280;52465;51.560;14.368;2023-01-20T06:44:02;99977.38;;;6.55;66.94
65553;BME280;52465;51.560;14.368;2023-01-20T06:46:27;99958.78;;;6.41;67.08
65553;BME280;52465;51.560;14.368;2023-01-20T06:48:54;99977.41;;;6.46;66.95
65553;BME280;52465;51.560;14.368;2023-01-20T06:51:25;99972.31;;;6.44;66.91
65553;BME280;52465;51.560;14.368;2023-01-20T06:53:52;99972.59;;;6.51;67.25
65553;BME280;52465;51.560;14.368;2023-01-20T06:56:18;99976.56;;;6.45;66.93
65553;BME280;52465;51.560;14.368;2023-01-20T06:58:44;99976.56;;;6.45;67.06
65553;BME280;52465;51.560;14.368;2023-01-20T07:01:12;99996.53;;;6.54;67.14
65553;BME280;52465;51.560;14.368;2023-01-20T07:03:38;99997.91;;;6.49;67.27
65553;BME280;52465;51.560;14.368;2023-01-20T07:06:20;100002.84;;;6.52;67.16
65553;BME280;52465;51.560;14.368;2023-01-20T07:08:46;99990.78;;;6.51;67.53
65553;BME280;52465;51.560;14.368;2023-01-20T07:11:12;100011.59;;;6.51;67.26
65553;BME280;52465;51.560;14.368;2023-01-20T07:13:38;100023.38;;;6.55;67.26
65553;BME280;52465;51.560;14.368;2023-01-20T07:16:06;100024.19;;;6.55;67.13
65553;BME280;52465;51.560;14.368;2023-01-20T07:18:32;100022.00;;;6.51;67.24
65553;BME280;52465;51.560;14.368;2023-01-20T07:20:57;99999.00;;;6.36;66.92
65553;BME280;52465;51.560;14.368;2023-01-20T07:23:24;100013.91;;;6.44;67.58
65553;BME280;52465;51.560;14.368;2023-01-20T07:25:57;100015.84;;;6.42;67.14
65553;BME280;52465;51.560;14.368;2023-01-20T07:28:23;100015.19;;;6.40;66.86
65553;BME280;52465;51.560;14.368;2023-01-20T07:30:49;100027.19;;;6.51;67.42
65553;BME280;52465;51.560;14.368;2023-01-20T07:33:14;100032.28;;;6.43;66.88
65553;BME280;52465;51.560;14.368;2023-01-20T07:35:40;100033.50;;;6.48;67.52
65553;BME280;52465;51.560;14.368;2023-01-20T07:38:05;100041.31;;;6.48;67.10
65553;BME280;52465;51.560;14.368;2023-01-20T07:40:30;100023.09;;;6.39;67.26
65553;BME280;52465;51.560;14.368;2023-01-20T07:42:56;100054.59;;;6.55;67.16
65553;BME280;52465;51.560;14.368;2023-01-20T07:45:22;100057.19;;;6.55;67.21
65553;BME280;52465;51.560;14.368;2023-01-20T07:47:47;100071.97;;;6.54;67.67
65553;BME280;52465;51.560;14.368;2023-01-20T07:50:13;100063.59;;;6.51;66.84
65553;BME280;52465;51.560;14.368;2023-01-20T07:52:39;100069.50;;;6.53;67.45
65553;BME280;52465;51.560;14.368;2023-01-20T07:55:04;100058.84;;;6.46;67.41
65553;BME280;52465;51.560;14.368;2023-01-20T07:57:30;100069.75;;;6.50;66.93
65553;BME280;52465;51.560;14.368;2023-01-20T07:59:55;100066.22;;;6.51;67.36
65553;BME280;52465;51.560;14.368;2023-01-20T08:02:21;100091.00;;;6.55;67.23
65553;BME280;52465;51.560;14.368;2023-01-20T08:04:46;100086.06;;;6.52;67.26
65553;BME280;52465;51.560;14.368;2023-01-20T08:07:12;100002.66;;;5.95;67.05
65553;BME280;52465;51.560;14.368;2023-01-20T08:09:40;100095.38;;;6.54;67.26
65553;BME280;52465;51.560;14.368;2023-01-20T08:12:08;100093.47;;;6.47;67.25
65553;BME280;52465;51.560;14.368;2023-01-20T08:14:33;100096.06;;;6.47;67.33
65553;BME280;52465;51.560;14.368;2023-01-20T08:16:59;100107.41;;;6.46;67.11
65553;BME280;52465;51.560;14.368;2023-01-20T08:19:27;100117.81;;;6.55;66.97
65553;BME280;52465;51.560;14.368;2023-01-20T08:21:54;100123.97;;;6.54;67.78
65553;BME280;52465;51.560;14.368;2023-01-20T08:24:23;100117.41;;;6.50;67.08
65553;BME280;52465;51.560;14.368;2023-01-20T08:26:49;100120.81;;;6.51;67.36
65553;BME280;52465;51.560;14.368;2023-01-20T08:29:17;100137.00;;;6.54;67.25
65553;BME280;52465;51.560;14.368;2023-01-20T08:31:43;100112.44;;;6.38;67.07
65553;BME280;52465;51.560;14.368;2023-01-20T08:34:09;100104.09;;;6.34;67.39
65553;BME280;52465;51.560;14.368;2023-01-20T08:36:35;100096.28;;;6.24;67.35
65553;BME280;52465;51.560;14.368;2023-01-20T08:39:05;100137.53;;;6.48;66.97
65553;BME280;52465;51.560;14.368;2023-01-20T08:41:36;100151.78;;;6.54;67.13
65553;BME280;52465;51.560;14.368;2023-01-20T08:44:04;100150.13;;;6.53;67.23
65553;BME280;52465;51.560;14.368;2023-01-20T08:46:30;100144.50;;;6.48;67.20
65553;BME280;52465;51.560;14.368;2023-01-20T08:48:56;100128.63;;;6.41;67.62
65553;BME280;52465;51.560;14.368;2023-01-20T08:51:26;100156.28;;;6.52;67.10
65553;BME280;52465;51.560;14.368;2023-01-20T08:53:55;100139.69;;;6.43;66.71
65553;BME280;52465;51.560;14.368;2023-01-20T08:56:23;100114.19;;;6.27;66.78
65553;BME280;52465;51.560;14.368;2023-01-20T08:58:49;100150.53;;;6.48;67.21
65553;BME280;52465;51.560;14.368;2023-01-20T09:04:13;100154.63;;;6.41;67.04
65553;BME280;52465;51.560;14.368;2023-01-20T09:06:44;100165.88;;;6.51;67.49
65553;BME280;52465;51.560;14.368;2023-01-20T09:09:11;100168.06;;;6.46;66.90
65553;BME280;52465;51.560;14.368;2023-01-20T09:11:37;100167.22;;;6.46;67.63
65553;BME280;52465;51.560;14.368;2023-01-20T09:14:03;100147.75;;;6.30;67.67
65553;BME280;52465;51.560;14.368;2023-01-20T09:16:29;100183.50;;;6.48;67.16
65553;BME280;52465;51.560;14.368;2023-01-20T09:18:55;100163.25;;;6.42;67.64
65553;BME280;52465;51.560;14.368;2023-01-20T09:21:23;100184.09;;;6.51;67.44
65553;BME280;52465;51.560;14.368;2023-01-20T09:23:49;100176.53;;;6.48;67.26
65553;BME280;52465;51.560;14.368;2023-01-20T09:26:14;100182.41;;;6.41;67.72
65553;BME280;52465;51.560;14.368;2023-01-20T09:28:41;100189.97;;;6.53;67.56
65553;BME280;52465;51.560;14.368;2023-01-20T09:31:10;100190.94;;;6.52;67.07
65553;BME280;52465;51.560;14.368;2023-01-20T09:33:37;100192.13;;;6.48;67.56
65553;BME280;52465;51.560;14.368;2023-01-20T09:36:05;100186.50;;;6.43;67.31
65553;BME280;52465;51.560;14.368;2023-01-20T09:38:32;100174.72;;;6.39;67.63
65553;BME280;52465;51.560;14.368;2023-01-20T09:44:38;100215.69;;;6.56;67.24
65553;BME280;52465;51.560;14.368;2023-01-20T09:53:37;100210.63;;;6.55;67.24
65553;BME280;52465;51.560;14.368;2023-01-20T09:56:13;100194.97;;;6.45;67.83
65553;BME280;52465;51.560;14.368;2023-01-20T09:59:10;100206.91;;;6.48;67.31
65553;BME280;52465;51.560;14.368;2023-01-20T10:01:50;100187.84;;;6.38;67.42
65553;BME280;52465;51.560;14.368;2023-01-20T10:04:31;100203.78;;;6.54;67.32
65553;BME280;52465;51.560;14.368;2023-01-20T10:07:07;100199.41;;;6.54;67.52
65553;BME280;52465;51.560;14.368;2023-01-20T10:09:57;100201.19;;;6.54;67.12
65553;BME280;52465;51.560;14.368;2023-01-20T10:12:36;100198.72;;;6.52;67.14
65553;BME280;52465;51.560;14.368;2023-01-20T10:15:13;100189.25;;;6.42;67.60
65553;BME280;52465;51.560;14.368;2023-01-20T10:17:50;100206.25;;;6.55;67.06
65553;BME280;52465;51.560;14.368;2023-01-20T10:23:04;100175.81;;;6.36;67.50
65553;BME280;52465;51.560;14.368;2023-01-20T10:25:43;100184.34;;;6.48;67.15
65553;BME280;52465;51.560;14.368;2023-01-20T10:28:25;100197.91;;;6.52;67.19
65553;BME280;52465;51.560;14.368;2023-01-20T10:30:56;100191.19;;;6.49;67.73
65553;BME280;52465;51.560;14.368;2023-01-20T10:33:36;100185.28;;;6.47;67.11
65553;BME280;52465;51.560;14.368;2023-01-20T10:36:03;100189.41;;;6.50;67.65
65553;BME280;52465;51.560;14.368;2023-01-20T10:38:35;100206.13;;;6.57;67.48
65553;BME280;52465;51.560;14.368;2023-01-20T10:43:55;100217.38;;;6.57;66.79
65553;BME280;52465;51.560;14.368;2023-01-20T10:52:45;100224.44;;;6.55;67.44
65553;BME280;52465;51.560;14.368;2023-01-20T10:55:34;100224.44;;;6.55;67.48
65553;BME280;52465;51.560;14.368;2023-01-20T10:58:17;100224.44;;;6.55;67.05
65553;BME280;52465;51.560;14.368;2023-01-20T11:00:45;100214.44;;;6.51;67.09
65553;BME280;52465;51.560;14.368;2023-01-20T11:03:14;100232.25;;;6.55;67.20
65553;BME280;52465;51.560;14.368;2023-01-20T11:05:42;100232.41;;;6.54;67.37
65553;BME280;52465;51.560;14.368;2023-01-20T11:08:18;100240.06;;;6.55;67.45
65553;BME280;52465;51.560;14.368;2023-01-20T11:10:46;100234.69;;;6.47;66.63
65553;BME280;52465;51.560;14.368;2023-01-20T11:13:13;100241.69;;;6.56;67.61
65553;BME280;52465;51.560;14.368;2023-01-20T11:15:44;100240.72;;;6.48;67.05
65553;BME280;52465;51.560;14.368;2023-01-20T11:21:02;100242.94;;;6.52;67.45
65553;BME280;52465;51.560;14.368;2023-01-20T11:26:10;100219.31;;;6.34;67.50
65553;BME280;52465;51.560;14.368;2023-01-20T11:31:13;100254.41;;;6.50;67.42
65553;BME280;52465;51.560;14.368;2023-01-20T11:33:38;100250.56;;;6.44;66.91
65553;BME280;52465;51.560;14.368;2023-01-20T11:36:16;100272.91;;;6.56;67.55
65553;BME280;52465;51.560;14.368;2023-01-20T11:38:48;100266.88;;;6.56;67.02
65553;BME280;52465;51.560;14.368;2023-01-20T11:41:26;100269.63;;;6.54;67.59
65553;BME280;52465;51.560;14.368;2023-01-20T11:43:57;100269.75;;;6.53;67.67
65553;BME280;52465;51.560;14.368;2023-01-20T11:46:26;100249.28;;;6.39;67.10
65553;BME280;52465;51.560;14.368;2023-01-20T11:49:12;100278.25;;;6.55;67.06
65553;BME280;52465;51.560;14.368;2023-01-20T11:54:36;100278.63;;;6.50;67.11
65553;BME280;52465;51.560;14.368;2023-01-20T11:57:04;100283.72;;;6.52;67.01
65553;BME280;52465;51.560;14.368;2023-01-20T12:05:04;100299.88;;;6.55;67.44
65553;BME280;52465;51.560;14.368;2023-01-20T12:07:43;100303.19;;;6.57;66.95
65553;BME280;52465;51.560;14.368;2023-01-20T12:10:19;100311.25;;;6.54;67.44
65553;BME280;52465;51.560;14.368;2023-01-20T12:12:53;100316.31;;;6.56;67.52
65553;BME280;52465;51.560;14.368;2023-01-20T12:15:24;100299.00;;;6.45;67.90
65553;BME280;52465;51.560;14.368;2023-01-20T12:17:59;100313.25;;;6.51;67.75
65553;BME280;52465;51.560;14.368;2023-01-20T12:20:33;100299.72;;;6.47;67.50
65553;BME280;52465;51.560;14.368;2023-01-20T12:25:34;100320.69;;;6.55;67.44
65553;BME280;52465;51.560;14.368;2023-01-20T12:31:00;100329.19;;;6.57;67.36
65553;BME280;52465;51.560;14.368;2023-01-20T12:33:36;100328.50;;;6.55;67.66
65553;BME280;52465;51.560;14.368;2023-01-20T12:36:22;100328.38;;;6.57;67.32
65553;BME280;52465;51.560;14.368;2023-01-20T12:42:24;100299.78;;;6.36;67.31
65553;BME280;52465;51.560;14.368;2023-01-20T12:56:17;100344.09;;;6.55;67.44
65553;BME280;52465;51.560;14.368;2023-01-20T12:59:02;100342.31;;;6.56;67.24
65553;BME280;52465;51.560;14.368;2023-01-20T13:01:55;100352.16;;;6.52;67.50
65553;BME280;52465;51.560;14.368;2023-01-20T13:07:12;100324.84;;;6.37;67.40
65553;BME280;52465;51.560;14.368;2023-01-20T13:12:56;100357.09;;;6.55;66.90
65553;BME280;52465;51.560;14.368;2023-01-20T13:15:33;100346.97;;;6.52;67.44
65553;BME280;52465;51.560;14.368;2023-01-20T13:18:22;100360.53;;;6.56;67.25
65553;BME280;52465;51.560;14.368;2023-01-20T13:20:52;100355.59;;;6.53;67.33
65553;BME280;52465;51.560;14.368;2023-01-20T13:23:24;100345.81;;;6.45;67.36
65553;BME280;52465;51.560;14.368;2023-01-20T13:25:51;100355.28;;;6.46;67.40
65553;BME280;52465;51.560;14.368;2023-01-20T13:28:24;100352.09;;;6.43;66.85
65553;BME280;52465;51.560;14.368;2023-01-20T13:30:52;100361.75;;;6.52;67.67
65553;BME280;52465;51.560;14.368;2023-01-20T13:33:37;100374.47;;;6.55;67.38
65553;BME280;52465;51.560;14.368;2023-01-20T13:38:38;100375.56;;;6.52;67.48
65553;BME280;52465;51.560;14.368;2023-01-20T13:41:03;100390.81;;;6.57;67.21
65553;BME280;52465;51.560;14.368;2023-01-20T13:43:47;100379.38;;;6.48;67.56
65553;BME280;52465;51.560;14.368;2023-01-20T13:49:13;100395.16;;;6.56;67.52
65553;BME280;52465;51.560;14.368;2023-01-20T13:51:43;100403.91;;;6.55;67.75
65553;BME280;52465;51.560;14.368;2023-01-20T13:56:47;100396.25;;;6.54;67.16
65553;BME280;52465;51.560;14.368;2023-01-20T13:59:13;100362.19;;;6.36;67.46
65553;BME280;52465;51.560;14.368;2023-01-20T14:01:41;100393.47;;;6.46;67.19
65553;BME280;52465;51.560;14.368;2023-01-20T14:04:17;100399.94;;;6.51;67.11
65553;BME280;52465;51.560;14.368;2023-01-20T14:06:48;100415.97;;;6.56;66.90
65553;BME280;52465;51.560;14.368;2023-01-20T14:09:20;100407.75;;;6.51;67.21
65553;BME280;52465;51.560;14.368;2023-01-20T14:11:51;100412.53;;;6.56;67.55
65553;BME280;52465;51.560;14.368;2023-01-20T14:14:20;100403.75;;;6.47;67.21
65553;BME280;52465;51.560;14.368;2023-01-20T14:16:47;100403.03;;;6.45;67.08
65553;BME280;52465;51.560;14.368;2023-01-20T14:19:33;100414.31;;;6.55;67.65
65553;BME280;52465;51.560;14.368;2023-01-20T14:22:14;100404.94;;;6.43;67.17
65553;BME280;52465;51.560;14.368;2023-01-20T14:24:58;100414.59;;;6.52;67.69
65553;BME280;52465;51.560;14.368;2023-01-20T14:27:32;100422.41;;;6.52;67.72
65553;BME280;52465;51.560;14.368;2023-01-20T14:33:06;100376.91;;;6.26;67.61
65553;BME280;52465;51.560;14.368;2023-01-20T14:35:33;100410.81;;;6.45;67.75
65553;BME280;52465;51.560;14.368;2023-01-20T14:37:59;100410.28;;;6.42;67.14
65553;BME280;52465;51.560;14.368;2023-01-20T14:42:56;100450.72;;;6.55;67.71
65553;BME280;52465;51.560;14.368;2023-01-20T14:45:23;100426.81;;;6.41;66.90
65553;BME280;52465;51.560;14.368;2023-01-20T14:47:52;100456.22;;;6.52;67.26
65553;BME280;52465;51.560;14.368;2023-01-20T14:50:19;100418.00;;;6.32;67.68
65553;BME280;52465;51.560;14.368;2023-01-20T14:52:45;100439.94;;;6.39;67.70